sensor_id;sensor_type;location;lat;lon;timestamp;P1;durP1;ratioP1;P2;durP2;ratioP2
66739;SDS011;53653;52.188;8.602;2023-05-10T00:01:07;12.60;;;7.25;;
66739;SDS011;53653;52.188;8.602;2023-05-10T00:03:32;14.50;;;7.45;;
66739;SDS011;53653;52.188;8.602;2023-05-10T00:05:58;12.93;;;7.47;;
66739;SDS011;53653;52.188;8.602;2023-05-10T00:08:23;14.50;;;7.67;;
66739;SDS011;53653;52.188;8.602;2023-05-10T00:10:49;12.48;;;7.18;;
66739;SDS011;53653;52.188;8.602;2023-05-10T00:13:15;12.80;;;7.57;;
66739;SDS011;53653;52.188;8.602;2023-05-10T00:15:41;12.32;;;7.13;;
66739;SDS011;53653;52.188;8.602;2023-05-10T00:18:06;13.87;;;7.37;;
66739;SDS011;53653;52.188;8.602;2023-05-10T00:20:32;13.40;;;7.25;;
66739;SDS011;53653;52.188;8.602;2023-05-10T00:22:57;12.97;;;7.07;;
66739;SDS011;53653;52.188;8.602;2023-05-10T00:25:23;13.13;;;7.23;;
66739;SDS011;53653;52.188;8.602;2023-05-10T00:27:48;13.85;;;7.68;;
66739;SDS011;53653;52.188;8.602;2023-05-10T00:30:14;14.67;;;8.27;;
66739;SDS011;53653;52.188;8.602;2023-05-10T00:32:40;15.57;;;8.25;;
66739;SDS011;53653;52.188;8.602;2023-05-10T00:35:06;14.63;;;8.27;;
66739;SDS011;53653;52.188;8.602;2023-05-10T00:37:32;14.33;;;7.70;;
66739;SDS011;53653;52.188;8.602;2023-05-10T00:39:58;13.65;;;7.85;;
66739;SDS011;53653;52.188;8.602;2023-05-10T00:42:23;13.83;;;7.77;;
66739;SDS011;53653;52.188;8.602;2023-05-10T00:44:51;15.18;;;8.13;;
66739;SDS011;53653;52.188;8.602;2023-05-10T00:47:17;15.77;;;8.88;;
66739;SDS011;53653;52.188;8.602;2023-05-10T00:49:43;17.07;;;8.87;;
66739;SDS011;53653;52.188;8.602;2023-05-10T00:52:10;16.10;;;8.30;;
66739;SDS011;53653;52.188;8.602;2023-05-10T00:54:35;15.53;;;8.83;;
66739;SDS011;53653;52.188;8.602;2023-05-10T00:57:01;18.40;;;9.18;;
66739;SDS011;53653;52.188;8.602;2023-05-10T00:59:28;16.23;;;8.57;;
66739;SDS011;53653;52.188;8.602;2023-05-10T01:01:54;15.30;;;8.38;;
66739;SDS011;53653;52.188;8.602;2023-05-10T01:04:21;16.15;;;8.40;;
66739;SDS011;53653;52.188;8.602;2023-05-10T01:06:51;14.63;;;8.20;;
66739;SDS011;53653;52.188;8.602;2023-05-10T01:09:18;13.50;;;8.07;;
66739;SDS011;53653;52.188;8.602;2023-05-10T01:11:44;17.10;;;8.38;;
66739;SDS011;53653;52.188;8.602;2023-05-10T01:14:10;13.60;;;8.02;;
66739;SDS011;53653;52.188;8.602;2023-05-10T01:16:37;15.23;;;8.10;;
66739;SDS011;53653;52.188;8.602;2023-05-10T01:19:11;14.68;;;8.23;;
66739;SDS011;53653;52.188;8.602;2023-05-10T01:21:54;16.15;;;8.05;;
66739;SDS011;53653;52.188;8.602;2023-05-10T01:30:22;15.43;;;7.95;;
66739;SDS011;53653;52.188;8.602;2023-05-10T01:33:11;16.40;;;8.63;;
66739;SDS011;53653;52.188;8.602;2023-05-10T01:43:30;17.02;;;9.07;;
66739;SDS011;53653;52.188;8.602;2023-05-10T01:46:02;17.10;;;9.65;;
66739;SDS011;53653;52.188;8.602;2023-05-10T01:48:37;17.13;;;9.32;;
66739;SDS011;53653;52.188;8.602;2023-05-10T01:51:11;17.33;;;9.85;;
66739;SDS011;53653;52.188;8.602;2023-05-10T01:53:38;15.20;;;8.30;;
66739;SDS011;53653;52.188;8.602;2023-05-10T01:56:05;14.35;;;7.72;;
66739;SDS011;53653;52.188;8.602;2023-05-10T01:58:32;15.98;;;8.80;;
66739;SDS011;53653;52.188;8.602;2023-05-10T02:01:00;14.60;;;8.23;;
66739;SDS011;53653;52.188;8.602;2023-05-10T02:03:28;16.30;;;8.18;;
66739;SDS011;53653;52.188;8.602;2023-05-10T02:05:56;16.13;;;8.40;;
66739;SDS011;53653;52.188;8.602;2023-05-10T02:08:23;14.93;;;8.15;;
66739;SDS011;53653;52.188;8.602;2023-05-10T02:10:50;14.95;;;7.35;;
66739;SDS011;53653;52.188;8.602;2023-05-10T02:13:18;13.20;;;7.38;;
66739;SDS011;53653;52.188;8.602;2023-05-10T02:15:46;14.35;;;7.70;;
66739;SDS011;53653;52.188;8.602;2023-05-10T02:18:13;16.97;;;7.53;;
66739;SDS011;53653;52.188;8.602;2023-05-10T02:20:40;13.27;;;7.40;;
66739;SDS011;53653;52.188;8.602;2023-05-10T02:23:08;13.25;;;7.30;;
66739;SDS011;53653;52.188;8.602;2023-05-10T02:25:34;16.15;;;7.30;;
66739;SDS011;53653;52.188;8.602;2023-05-10T02:28:02;15.05;;;6.97;;
66739;SDS011;53653;52.188;8.602;2023-05-10T02:30:31;14.17;;;7.07;;
66739;SDS011;53653;52.188;8.602;2023-05-10T02:32:58;13.35;;;6.95;;
66739;SDS011;53653;52.188;8.602;2023-05-10T02:35:25;14.38;;;7.40;;
66739;SDS011;53653;52.188;8.602;2023-05-10T02:37:52;13.40;;;6.75;;
66739;SDS011;53653;52.188;8.602;2023-05-10T02:40:19;13.20;;;6.85;;
66739;SDS011;53653;52.188;8.602;2023-05-10T02:42:47;13.30;;;7.00;;
66739;SDS011;53653;52.188;8.602;2023-05-10T02:45:17;12.45;;;5.80;;
66739;SDS011;53653;52.188;8.602;2023-05-10T02:47:45;11.40;;;6.30;;
66739;SDS011;53653;52.188;8.602;2023-05-10T02:50:11;10.23;;;5.40;;
66739;SDS011;53653;52.188;8.602;2023-05-10T02:52:39;9.38;;;4.35;;
66739;SDS011;53653;52.188;8.602;2023-05-10T02:55:07;11.32;;;4.03;;
66739;SDS011;53653;52.188;8.602;2023-05-10T02:57:35;8.77;;;4.00;;
66739;SDS011;53653;52.188;8.602;2023-05-10T03:00:07;9.27;;;4.20;;
66739;SDS011;53653;52.188;8.602;2023-05-10T03:02:33;7.53;;;3.45;;
66739;SDS011;53653;52.188;8.602;2023-05-10T03:04:59;9.50;;;4.55;;
66739;SDS011;53653;52.188;8.602;2023-05-10T03:07:25;7.90;;;3.78;;
66739;SDS011;53653;52.188;8.602;2023-05-10T03:09:51;8.47;;;4.10;;
66739;SDS011;53653;52.188;8.602;2023-05-10T03:12:31;7.88;;;3.60;;
66739;SDS011;53653;52.188;8.602;2023-05-10T03:15:22;7.63;;;3.65;;
66739;SDS011;53653;52.188;8.602;2023-05-10T03:20:50;7.63;;;3.70;;
66739;SDS011;53653;52.188;8.602;2023-05-10T03:26:17;8.50;;;4.07;;
66739;SDS011;53653;52.188;8.602;2023-05-10T03:28:49;8.85;;;4.22;;
66739;SDS011;53653;52.188;8.602;2023-05-10T03:31:15;9.05;;;4.00;;
66739;SDS011;53653;52.188;8.602;2023-05-10T03:33:46;8.00;;;3.60;;
66739;SDS011;53653;52.188;8.602;2023-05-10T03:36:13;8.82;;;4.40;;
66739;SDS011;53653;52.188;8.602;2023-05-10T03:38:39;8.18;;;4.15;;
66739;SDS011;53653;52.188;8.602;2023-05-10T03:41:04;11.53;;;4.50;;
66739;SDS011;53653;52.188;8.602;2023-05-10T03:43:33;9.45;;;4.72;;
66739;SDS011;53653;52.188;8.602;2023-05-10T03:46:01;10.80;;;4.65;;
66739;SDS011;53653;52.188;8.602;2023-05-10T03:48:27;10.73;;;4.88;;
66739;SDS011;53653;52.188;8.602;2023-05-10T03:50:53;10.17;;;4.67;;
66739;SDS011;53653;52.188;8.602;2023-05-10T03:53:18;10.73;;;4.93;;
66739;SDS011;53653;52.188;8.602;2023-05-10T03:55:44;11.32;;;5.57;;
66739;SDS011;53653;52.188;8.602;2023-05-10T03:58:10;9.97;;;4.87;;
66739;SDS011;53653;52.188;8.602;2023-05-10T04:00:36;11.05;;;5.22;;
66739;SDS011;53653;52.188;8.602;2023-05-10T04:03:02;9.98;;;4.95;;
66739;SDS011;53653;52.188;8.602;2023-05-10T04:05:28;12.55;;;5.00;;
66739;SDS011;53653;52.188;8.602;2023-05-10T04:07:54;10.67;;;5.20;;
66739;SDS011;53653;52.188;8.602;2023-05-10T04:10:20;10.68;;;4.97;;
66739;SDS011;53653;52.188;8.602;2023-05-10T04:12:46;10.55;;;4.65;;
66739;SDS011;53653;52.188;8.602;2023-05-10T04:15:11;11.47;;;4.77;;
66739;SDS011;53653;52.188;8.602;2023-05-10T04:17:37;9.50;;;4.60;;
66739;SDS011;53653;52.188;8.602;2023-05-10T04:20:03;10.73;;;4.77;;
66739;SDS011;53653;52.188;8.602;2023-05-10T04:22:29;9.30;;;4.32;;
66739;SDS011;53653;52.188;8.602;2023-05-10T04:24:55;9.77;;;4.40;;
66739;SDS011;53653;52.188;8.602;2023-05-10T04:27:21;9.50;;;4.20;;
66739;SDS011;53653;52.188;8.602;2023-05-10T04:29:46;7.50;;;3.15;;
66739;SDS011;53653;52.188;8.602;2023-05-10T04:32:12;6.03;;;2.50;;
66739;SDS011;53653;52.188;8.602;2023-05-10T04:34:38;5.10;;;1.70;;
66739;SDS011;53653;52.188;8.602;2023-05-10T04:37:03;5.70;;;1.65;;
66739;SDS011;53653;52.188;8.602;2023-05-10T04:39:29;4.78;;;1.52;;
66739;SDS011;53653;52.188;8.602;2023-05-10T04:41:55;4.27;;;1.40;;
66739;SDS011;53653;52.188;8.602;2023-05-10T04:44:20;4.90;;;1.40;;
66739;SDS011;53653;52.188;8.602;2023-05-10T04:46:46;4.88;;;1.60;;
66739;SDS011;53653;52.188;8.602;2023-05-10T04:49:12;4.37;;;1.40;;
66739;SDS011;53653;52.188;8.602;2023-05-10T04:51:38;6.40;;;2.50;;
66739;SDS011;53653;52.188;8.602;2023-05-10T04:54:03;5.90;;;1.83;;
66739;SDS011;53653;52.188;8.602;2023-05-10T04:56:29;5.50;;;1.60;;
66739;SDS011;53653;52.188;8.602;2023-05-10T04:58:55;4.83;;;1.53;;
66739;SDS011;53653;52.188;8.602;2023-05-10T05:01:20;5.30;;;1.50;;
66739;SDS011;53653;52.188;8.602;2023-05-10T05:03:46;5.10;;;2.03;;
66739;SDS011;53653;52.188;8.602;2023-05-10T05:06:12;5.40;;;2.05;;
66739;SDS011;53653;52.188;8.602;2023-05-10T05:08:37;4.63;;;2.00;;
66739;SDS011;53653;52.188;8.602;2023-05-10T05:11:03;5.67;;;2.10;;
66739;SDS011;53653;52.188;8.602;2023-05-10T05:13:28;6.15;;;2.33;;
66739;SDS011;53653;52.188;8.602;2023-05-10T05:15:54;6.77;;;2.47;;
66739;SDS011;53653;52.188;8.602;2023-05-10T05:18:20;7.23;;;2.70;;
66739;SDS011;53653;52.188;8.602;2023-05-10T05:20:46;8.05;;;2.67;;
66739;SDS011;53653;52.188;8.602;2023-05-10T05:23:11;7.37;;;2.80;;
66739;SDS011;53653;52.188;8.602;2023-05-10T05:25:37;7.13;;;3.00;;
66739;SDS011;53653;52.188;8.602;2023-05-10T05:28:03;8.40;;;3.80;;
66739;SDS011;53653;52.188;8.602;2023-05-10T05:30:28;8.73;;;3.65;;
66739;SDS011;53653;52.188;8.602;2023-05-10T05:32:54;9.03;;;3.53;;
66739;SDS011;53653;52.188;8.602;2023-05-10T05:35:20;12.60;;;4.35;;
66739;SDS011;53653;52.188;8.602;2023-05-10T05:37:45;10.33;;;4.47;;
66739;SDS011;53653;52.188;8.602;2023-05-10T05:40:14;10.10;;;4.55;;
66739;SDS011;53653;52.188;8.602;2023-05-10T05:42:40;9.45;;;4.60;;
66739;SDS011;53653;52.188;8.602;2023-05-10T05:45:06;10.33;;;4.77;;
66739;SDS011;53653;52.188;8.602;2023-05-10T05:47:34;11.07;;;5.18;;
66739;SDS011;53653;52.188;8.602;2023-05-10T05:49:59;9.70;;;4.60;;
66739;SDS011;53653;52.188;8.602;2023-05-10T05:52:25;9.63;;;4.43;;
66739;SDS011;53653;52.188;8.602;2023-05-10T05:54:50;11.80;;;4.73;;
66739;SDS011;53653;52.188;8.602;2023-05-10T05:57:16;13.80;;;4.60;;
66739;SDS011;53653;52.188;8.602;2023-05-10T05:59:41;10.20;;;4.47;;
66739;SDS011;53653;52.188;8.602;2023-05-10T06:02:09;9.82;;;4.45;;
66739;SDS011;53653;52.188;8.602;2023-05-10T06:04:35;8.50;;;3.92;;
66739;SDS011;53653;52.188;8.602;2023-05-10T06:07:01;10.50;;;4.03;;
66739;SDS011;53653;52.188;8.602;2023-05-10T06:09:26;9.50;;;3.47;;
66739;SDS011;53653;52.188;8.602;2023-05-10T06:11:52;8.02;;;3.15;;
66739;SDS011;53653;52.188;8.602;2023-05-10T06:14:19;8.03;;;3.40;;
66739;SDS011;53653;52.188;8.602;2023-05-10T06:16:45;7.88;;;3.20;;
66739;SDS011;53653;52.188;8.602;2023-05-10T06:19:12;8.35;;;3.75;;
66739;SDS011;53653;52.188;8.602;2023-05-10T06:21:37;7.83;;;3.37;;
66739;SDS011;53653;52.188;8.602;2023-05-10T06:24:03;13.00;;;3.80;;
66739;SDS011;53653;52.188;8.602;2023-05-10T06:26:29;9.80;;;4.00;;
66739;SDS011;53653;52.188;8.602;2023-05-10T06:28:55;10.87;;;4.53;;
66739;SDS011;53653;52.188;8.602;2023-05-10T06:31:20;10.02;;;4.18;;
66739;SDS011;53653;52.188;8.602;2023-05-10T06:33:46;10.17;;;3.60;;
66739;SDS011;53653;52.188;8.602;2023-05-10T06:36:12;9.70;;;4.45;;
66739;SDS011;53653;52.188;8.602;2023-05-10T06:38:38;9.40;;;4.27;;
66739;SDS011;53653;52.188;8.602;2023-05-10T06:41:04;11.30;;;4.35;;
66739;SDS011;53653;52.188;8.602;2023-05-10T06:43:29;11.27;;;4.47;;
66739;SDS011;53653;52.188;8.602;2023-05-10T06:45:55;8.43;;;4.68;;
66739;SDS011;53653;52.188;8.602;2023-05-10T06:48:21;9.13;;;4.30;;
66739;SDS011;53653;52.188;8.602;2023-05-10T06:50:46;8.90;;;4.63;;
66739;SDS011;53653;52.188;8.602;2023-05-10T06:53:12;7.90;;;3.90;;
66739;SDS011;53653;52.188;8.602;2023-05-10T06:55:38;10.43;;;4.00;;
66739;SDS011;53653;52.188;8.602;2023-05-10T06:58:04;9.05;;;3.47;;
66739;SDS011;53653;52.188;8.602;2023-05-10T07:00:30;8.10;;;3.30;;
66739;SDS011;53653;52.188;8.602;2023-05-10T07:02:55;8.10;;;3.33;;
66739;SDS011;53653;52.188;8.602;2023-05-10T07:05:21;9.30;;;3.53;;
66739;SDS011;53653;52.188;8.602;2023-05-10T07:07:47;9.02;;;3.10;;
66739;SDS011;53653;52.188;8.602;2023-05-10T07:10:12;8.20;;;3.20;;
66739;SDS011;53653;52.188;8.602;2023-05-10T07:12:38;7.30;;;3.10;;
66739;SDS011;53653;52.188;8.602;2023-05-10T07:15:04;6.60;;;3.20;;
66739;SDS011;53653;52.188;8.602;2023-05-10T07:17:30;6.97;;;3.00;;
66739;SDS011;53653;52.188;8.602;2023-05-10T07:19:56;9.80;;;3.40;;
66739;SDS011;53653;52.188;8.602;2023-05-10T07:22:21;7.20;;;2.88;;
66739;SDS011;53653;52.188;8.602;2023-05-10T07:24:47;8.07;;;2.87;;
66739;SDS011;53653;52.188;8.602;2023-05-10T07:27:13;7.45;;;2.92;;
66739;SDS011;53653;52.188;8.602;2023-05-10T07:29:38;6.87;;;3.20;;
66739;SDS011;53653;52.188;8.602;2023-05-10T07:32:04;8.45;;;3.33;;
66739;SDS011;53653;52.188;8.602;2023-05-10T07:34:30;8.20;;;3.50;;
66739;SDS011;53653;52.188;8.602;2023-05-10T07:36:59;7.07;;;3.08;;
66739;SDS011;53653;52.188;8.602;2023-05-10T07:39:26;7.60;;;3.35;;
66739;SDS011;53653;52.188;8.602;2023-05-10T07:41:52;7.70;;;3.50;;
66739;SDS011;53653;52.188;8.602;2023-05-10T07:44:18;9.05;;;3.40;;
66739;SDS011;53653;52.188;8.602;2023-05-10T07:46:45;11.73;;;4.70;;
66739;SDS011;53653;52.188;8.602;2023-05-10T07:49:13;9.45;;;4.07;;
66739;SDS011;53653;52.188;8.602;2023-05-10T07:51:38;9.82;;;3.30;;
66739;SDS011;53653;52.188;8.602;2023-05-10T07:54:04;8.27;;;3.60;;
66739;SDS011;53653;52.188;8.602;2023-05-10T07:56:30;8.93;;;3.63;;
66739;SDS011;53653;52.188;8.602;2023-05-10T07:59:01;11.30;;;4.10;;
66739;SDS011;53653;52.188;8.602;2023-05-10T08:01:31;12.68;;;4.00;;
66739;SDS011;53653;52.188;8.602;2023-05-10T08:04:00;9.35;;;4.15;;
66739;SDS011;53653;52.188;8.602;2023-05-10T08:06:27;10.33;;;4.07;;
66739;SDS011;53653;52.188;8.602;2023-05-10T08:08:55;10.30;;;4.35;;
66739;SDS011;53653;52.188;8.602;2023-05-10T08:11:21;11.20;;;4.43;;
66739;SDS011;53653;52.188;8.602;2023-05-10T08:13:48;11.93;;;4.75;;
66739;SDS011;53653;52.188;8.602;2023-05-10T08:16:15;11.00;;;4.43;;
66739;SDS011;53653;52.188;8.602;2023-05-10T08:18:42;9.83;;;4.60;;
66739;SDS011;53653;52.188;8.602;2023-05-10T08:21:10;10.18;;;5.00;;
66739;SDS011;53653;52.188;8.602;2023-05-10T08:23:36;11.20;;;5.13;;
66739;SDS011;53653;52.188;8.602;2023-05-10T08:26:02;14.37;;;5.90;;
66739;SDS011;53653;52.188;8.602;2023-05-10T08:28:27;11.68;;;5.05;;
66739;SDS011;53653;52.188;8.602;2023-05-10T08:30:53;13.73;;;5.93;;
66739;SDS011;53653;52.188;8.602;2023-05-10T08:33:19;13.48;;;5.80;;
66739;SDS011;53653;52.188;8.602;2023-05-10T08:35:45;14.68;;;5.82;;
66739;SDS011;53653;52.188;8.602;2023-05-10T08:38:10;14.10;;;6.13;;
66739;SDS011;53653;52.188;8.602;2023-05-10T08:40:40;15.63;;;6.27;;
66739;SDS011;53653;52.188;8.602;2023-05-10T08:43:08;15.07;;;6.65;;
66739;SDS011;53653;52.188;8.602;2023-05-10T08:45:39;17.92;;;7.47;;
66739;SDS011;53653;52.188;8.602;2023-05-10T08:48:07;16.13;;;7.32;;
66739;SDS011;53653;52.188;8.602;2023-05-10T08:50:38;16.40;;;7.13;;
66739;SDS011;53653;52.188;8.602;2023-05-10T08:53:06;15.13;;;7.03;;
66739;SDS011;53653;52.188;8.602;2023-05-10T08:55:35;15.90;;;7.47;;
66739;SDS011;53653;52.188;8.602;2023-05-10T08:58:05;18.08;;;7.40;;
66739;SDS011;53653;52.188;8.602;2023-05-10T09:00:31;16.98;;;7.30;;
66739;SDS011;53653;52.188;8.602;2023-05-10T09:03:00;16.80;;;7.20;;
66739;SDS011;53653;52.188;8.602;2023-05-10T09:05:28;18.70;;;7.55;;
66739;SDS011;53653;52.188;8.602;2023-05-10T09:07:54;17.38;;;7.45;;
66739;SDS011;53653;52.188;8.602;2023-05-10T09:10:20;19.07;;;8.07;;
66739;SDS011;53653;52.188;8.602;2023-05-10T09:12:46;18.52;;;7.78;;
66739;SDS011;53653;52.188;8.602;2023-05-10T09:15:14;19.95;;;7.90;;
66739;SDS011;53653;52.188;8.602;2023-05-10T09:17:40;19.63;;;8.77;;
66739;SDS011;53653;52.188;8.602;2023-05-10T09:20:07;19.98;;;8.80;;
66739;SDS011;53653;52.188;8.602;2023-05-10T09:22:34;19.60;;;8.52;;
66739;SDS011;53653;52.188;8.602;2023-05-10T09:25:03;18.85;;;8.55;;
66739;SDS011;53653;52.188;8.602;2023-05-10T09:27:29;22.27;;;8.67;;
66739;SDS011;53653;52.188;8.602;2023-05-10T09:29:54;18.45;;;7.57;;
66739;SDS011;53653;52.188;8.602;2023-05-10T09:32:20;18.17;;;8.20;;
66739;SDS011;53653;52.188;8.602;2023-05-10T09:34:45;19.47;;;8.37;;
66739;SDS011;53653;52.188;8.602;2023-05-10T09:37:14;17.17;;;7.57;;
66739;SDS011;53653;52.188;8.602;2023-05-10T09:39:40;18.57;;;8.57;;
66739;SDS011;53653;52.188;8.602;2023-05-10T09:42:07;20.30;;;8.77;;
66739;SDS011;53653;52.188;8.602;2023-05-10T09:44:34;19.13;;;7.82;;
66739;SDS011;53653;52.188;8.602;2023-05-10T09:47:00;21.52;;;8.68;;
66739;SDS011;53653;52.188;8.602;2023-05-10T09:49:26;18.33;;;7.75;;
66739;SDS011;53653;52.188;8.602;2023-05-10T09:52:02;20.67;;;7.63;;
66739;SDS011;53653;52.188;8.602;2023-05-10T09:54:32;20.35;;;7.45;;
66739;SDS011;53653;52.188;8.602;2023-05-10T09:56:58;15.93;;;7.05;;
66739;SDS011;53653;52.188;8.602;2023-05-10T09:59:27;19.37;;;7.27;;
66739;SDS011;53653;52.188;8.602;2023-05-10T10:01:56;16.25;;;6.82;;
66739;SDS011;53653;52.188;8.602;2023-05-10T10:04:23;15.88;;;6.57;;
66739;SDS011;53653;52.188;8.602;2023-05-10T10:06:58;14.70;;;6.27;;
66739;SDS011;53653;52.188;8.602;2023-05-10T10:09:28;15.27;;;6.78;;
66739;SDS011;53653;52.188;8.602;2023-05-10T10:11:54;13.68;;;5.90;;
66739;SDS011;53653;52.188;8.602;2023-05-10T10:14:21;14.20;;;5.97;;
66739;SDS011;53653;52.188;8.602;2023-05-10T10:16:49;15.33;;;5.93;;
66739;SDS011;53653;52.188;8.602;2023-05-10T10:19:16;14.27;;;6.65;;
66739;SDS011;53653;52.188;8.602;2023-05-10T10:21:43;14.90;;;6.95;;
66739;SDS011;53653;52.188;8.602;2023-05-10T10:24:08;15.63;;;7.40;;
66739;SDS011;53653;52.188;8.602;2023-05-10T10:26:34;15.57;;;7.27;;
66739;SDS011;53653;52.188;8.602;2023-05-10T10:31:57;17.13;;;7.05;;
66739;SDS011;53653;52.188;8.602;2023-05-10T10:34:33;18.10;;;6.93;;
66739;SDS011;53653;52.188;8.602;2023-05-10T10:37:03;16.23;;;7.00;;
66739;SDS011;53653;52.188;8.602;2023-05-10T10:39:30;16.00;;;6.43;;
66739;SDS011;53653;52.188;8.602;2023-05-10T10:41:56;14.70;;;6.53;;
66739;SDS011;53653;52.188;8.602;2023-05-10T10:44:33;14.98;;;6.13;;
66739;SDS011;53653;52.188;8.602;2023-05-10T10:49:52;14.90;;;6.27;;
66739;SDS011;53653;52.188;8.602;2023-05-10T10:52:27;14.57;;;6.65;;
66739;SDS011;53653;52.188;8.602;2023-05-10T11:00:35;14.05;;;5.53;;
66739;SDS011;53653;52.188;8.602;2023-05-10T11:13:32;11.80;;;4.97;;
66739;SDS011;53653;52.188;8.602;2023-05-10T11:18:37;10.90;;;4.63;;
66739;SDS011;53653;52.188;8.602;2023-05-10T11:21:03;10.23;;;4.47;;
66739;SDS011;53653;52.188;8.602;2023-05-10T11:23:51;12.07;;;4.67;;
66739;SDS011;53653;52.188;8.602;2023-05-10T11:26:18;12.65;;;4.75;;
66739;SDS011;53653;52.188;8.602;2023-05-10T11:28:47;13.48;;;4.88;;
66739;SDS011;53653;52.188;8.602;2023-05-10T11:31:14;11.57;;;5.30;;
66739;SDS011;53653;52.188;8.602;2023-05-10T11:36:13;14.03;;;5.27;;
66739;SDS011;53653;52.188;8.602;2023-05-10T11:38:40;16.45;;;5.47;;
66739;SDS011;53653;52.188;8.602;2023-05-10T11:41:07;13.35;;;5.20;;
66739;SDS011;53653;52.188;8.602;2023-05-10T11:43:34;14.13;;;5.37;;
66739;SDS011;53653;52.188;8.602;2023-05-10T11:46:01;13.63;;;5.78;;
66739;SDS011;53653;52.188;8.602;2023-05-10T11:48:29;14.70;;;5.47;;
66739;SDS011;53653;52.188;8.602;2023-05-10T11:50:55;14.45;;;6.70;;
66739;SDS011;53653;52.188;8.602;2023-05-10T11:53:22;12.60;;;5.68;;
66739;SDS011;53653;52.188;8.602;2023-05-10T11:55:47;14.30;;;6.57;;
66739;SDS011;53653;52.188;8.602;2023-05-10T11:58:13;15.98;;;6.72;;
66739;SDS011;53653;52.188;8.602;2023-05-10T12:00:38;14.10;;;6.00;;
66739;SDS011;53653;52.188;8.602;2023-05-10T12:03:04;13.18;;;5.65;;
66739;SDS011;53653;52.188;8.602;2023-05-10T12:05:33;12.57;;;6.00;;
66739;SDS011;53653;52.188;8.602;2023-05-10T12:08:15;14.57;;;5.63;;
66739;SDS011;53653;52.188;8.602;2023-05-10T12:10:44;17.08;;;6.25;;
66739;SDS011;53653;52.188;8.602;2023-05-10T12:13:10;14.17;;;6.27;;
66739;SDS011;53653;52.188;8.602;2023-05-10T12:15:38;11.55;;;5.28;;
66739;SDS011;53653;52.188;8.602;2023-05-10T12:18:03;16.53;;;6.57;;
66739;SDS011;53653;52.188;8.602;2023-05-10T12:20:30;13.82;;;5.75;;
66739;SDS011;53653;52.188;8.602;2023-05-10T12:22:57;15.35;;;6.57;;
66739;SDS011;53653;52.188;8.602;2023-05-10T12:25:24;14.80;;;5.80;;
66739;SDS011;53653;52.188;8.602;2023-05-10T12:27:55;13.50;;;5.72;;
66739;SDS011;53653;52.188;8.602;2023-05-10T12:30:22;14.10;;;6.32;;
66739;SDS011;53653;52.188;8.602;2023-05-10T12:32:52;14.77;;;5.97;;
66739;SDS011;53653;52.188;8.602;2023-05-10T12:35:19;14.88;;;6.00;;
66739;SDS011;53653;52.188;8.602;2023-05-10T12:37:50;13.90;;;5.93;;
66739;SDS011;53653;52.188;8.602;2023-05-10T12:40:15;14.40;;;5.90;;
66739;SDS011;53653;52.188;8.602;2023-05-10T12:42:41;13.85;;;5.57;;
66739;SDS011;53653;52.188;8.602;2023-05-10T12:45:07;16.27;;;6.03;;
66739;SDS011;53653;52.188;8.602;2023-05-10T12:47:33;17.58;;;6.00;;
66739;SDS011;53653;52.188;8.602;2023-05-10T12:49:59;10.63;;;5.43;;
66739;SDS011;53653;52.188;8.602;2023-05-10T12:52:26;13.97;;;5.80;;
66739;SDS011;53653;52.188;8.602;2023-05-10T12:54:52;13.05;;;5.53;;
66739;SDS011;53653;52.188;8.602;2023-05-10T12:57:18;12.10;;;5.95;;
66739;SDS011;53653;52.188;8.602;2023-05-10T12:59:45;13.23;;;5.97;;
66739;SDS011;53653;52.188;8.602;2023-05-10T13:02:10;12.47;;;5.67;;
66739;SDS011;53653;52.188;8.602;2023-05-10T13:04:36;12.30;;;5.97;;
66739;SDS011;53653;52.188;8.602;2023-05-10T13:07:04;16.15;;;6.70;;
66739;SDS011;53653;52.188;8.602;2023-05-10T13:09:31;11.93;;;6.13;;
66739;SDS011;53653;52.188;8.602;2023-05-10T13:11:56;14.60;;;5.97;;
66739;SDS011;53653;52.188;8.602;2023-05-10T13:14:21;11.98;;;5.70;;
66739;SDS011;53653;52.188;8.602;2023-05-10T13:16:47;11.30;;;5.77;;
66739;SDS011;53653;52.188;8.602;2023-05-10T13:19:13;14.23;;;6.03;;
66739;SDS011;53653;52.188;8.602;2023-05-10T13:21:39;12.85;;;5.95;;
66739;SDS011;53653;52.188;8.602;2023-05-10T13:24:06;13.60;;;5.95;;
66739;SDS011;53653;52.188;8.602;2023-05-10T13:26:32;15.27;;;5.75;;
66739;SDS011;53653;52.188;8.602;2023-05-10T13:28:57;12.67;;;5.87;;
66739;SDS011;53653;52.188;8.602;2023-05-10T13:31:23;12.77;;;5.77;;
66739;SDS011;53653;52.188;8.602;2023-05-10T13:33:48;12.07;;;5.40;;
66739;SDS011;53653;52.188;8.602;2023-05-10T13:36:14;11.50;;;5.37;;
66739;SDS011;53653;52.188;8.602;2023-05-10T13:38:40;11.15;;;5.10;;
66739;SDS011;53653;52.188;8.602;2023-05-10T13:41:05;13.03;;;5.10;;
66739;SDS011;53653;52.188;8.602;2023-05-10T13:43:30;10.20;;;5.00;;
66739;SDS011;53653;52.188;8.602;2023-05-10T13:45:56;11.40;;;5.07;;
66739;SDS011;53653;52.188;8.602;2023-05-10T13:48:21;11.13;;;5.53;;
66739;SDS011;53653;52.188;8.602;2023-05-10T13:50:47;12.73;;;5.10;;
66739;SDS011;53653;52.188;8.602;2023-05-10T13:53:12;12.85;;;5.65;;
66739;SDS011;53653;52.188;8.602;2023-05-10T13:55:38;11.70;;;5.30;;
66739;SDS011;53653;52.188;8.602;2023-05-10T13:58:03;11.87;;;5.43;;
66739;SDS011;53653;52.188;8.602;2023-05-10T14:00:29;12.32;;;5.07;;
66739;SDS011;53653;52.188;8.602;2023-05-10T14:02:55;10.87;;;4.77;;
66739;SDS011;53653;52.188;8.602;2023-05-10T14:05:20;12.30;;;4.85;;
66739;SDS011;53653;52.188;8.602;2023-05-10T14:07:46;10.90;;;4.90;;
66739;SDS011;53653;52.188;8.602;2023-05-10T14:10:12;13.93;;;5.25;;
66739;SDS011;53653;52.188;8.602;2023-05-10T14:12:37;10.67;;;4.97;;
66739;SDS011;53653;52.188;8.602;2023-05-10T14:15:03;10.90;;;5.00;;
66739;SDS011;53653;52.188;8.602;2023-05-10T14:17:31;12.82;;;4.88;;
66739;SDS011;53653;52.188;8.602;2023-05-10T14:19:57;11.50;;;5.28;;
66739;SDS011;53653;52.188;8.602;2023-05-10T14:22:22;13.60;;;6.00;;
66739;SDS011;53653;52.188;8.602;2023-05-10T14:24:48;13.60;;;5.97;;
66739;SDS011;53653;52.188;8.602;2023-05-10T14:27:14;17.27;;;7.60;;
66739;SDS011;53653;52.188;8.602;2023-05-10T14:29:40;18.90;;;8.10;;
66739;SDS011;53653;52.188;8.602;2023-05-10T14:32:05;16.83;;;6.80;;
66739;SDS011;53653;52.188;8.602;2023-05-10T14:34:32;19.90;;;8.45;;
66739;SDS011;53653;52.188;8.602;2023-05-10T14:36:57;16.95;;;8.05;;
66739;SDS011;53653;52.188;8.602;2023-05-10T14:39:23;18.63;;;8.77;;
66739;SDS011;53653;52.188;8.602;2023-05-10T14:41:49;18.48;;;8.43;;
66739;SDS011;53653;52.188;8.602;2023-05-10T14:44:16;20.35;;;9.05;;
66739;SDS011;53653;52.188;8.602;2023-05-10T14:46:42;20.80;;;8.57;;
66739;SDS011;53653;52.188;8.602;2023-05-10T14:49:07;18.53;;;8.53;;
66739;SDS011;53653;52.188;8.602;2023-05-10T14:51:33;20.50;;;9.43;;
66739;SDS011;53653;52.188;8.602;2023-05-10T14:53:58;22.33;;;8.87;;
66739;SDS011;53653;52.188;8.602;2023-05-10T14:56:24;21.00;;;9.27;;
66739;SDS011;53653;52.188;8.602;2023-05-10T14:58:51;21.27;;;10.23;;
66739;SDS011;53653;52.188;8.602;2023-05-10T15:01:16;20.43;;;9.67;;
66739;SDS011;53653;52.188;8.602;2023-05-10T15:03:42;23.37;;;10.80;;
66739;SDS011;53653;52.188;8.602;2023-05-10T15:06:08;24.38;;;11.00;;
66739;SDS011;53653;52.188;8.602;2023-05-10T15:08:33;22.58;;;9.95;;
66739;SDS011;53653;52.188;8.602;2023-05-10T15:10:59;19.03;;;9.00;;
66739;SDS011;53653;52.188;8.602;2023-05-10T15:13:25;20.33;;;8.80;;
66739;SDS011;53653;52.188;8.602;2023-05-10T15:15:50;20.40;;;8.73;;
66739;SDS011;53653;52.188;8.602;2023-05-10T15:18:16;22.30;;;9.97;;
66739;SDS011;53653;52.188;8.602;2023-05-10T15:20:41;20.80;;;9.80;;
66739;SDS011;53653;52.188;8.602;2023-05-10T15:23:07;23.10;;;10.17;;